Time;durP1;ratioP1;P1;durP2;ratioP2;P2;SDS_P1;SDS_P2;PMS_P1;PMS_P2;Temp;Humidity;BMP_temperature;BMP_pressure;BME280_temperature;BME280_humidity;BME280_pressure;Samples;Min_cycle;Max_cycle;Signal;HPM_P1;HPM_P2
2021/07/18 00:01:24;;;;;;;6.03;1.73;;;;;;;;;;5036590;28;20237;-48
2021/07/18 00:03:50;;;;;;;7.43;2.15;;;;;;;;;;5036790;28;20261;-49
2021/07/18 00:06:16;;;;;;;4.55;1.70;;;;;;;;;;5030297;28;20240;-48
2021/07/18 00:08:42;;;;;;;5.22;1.92;;;;;;;;;;5036817;28;20666;-48
2021/07/18 00:11:08;;;;;;;6.05;1.85;;;;;;;;;;5036840;28;20191;-49
2021/07/18 00:13:34;;;;;;;7.00;2.17;;;;;;;;;;5036955;28;20416;-48
2021/07/18 00:16:00;;;;;;;9.57;2.03;;;;;;;;;;5036071;28;20234;-48
2021/07/18 00:18:27;;;;;;;3.78;1.80;;;;;;;;;;5036163;28;20179;-48
2021/07/18 00:20:53;;;;;;;4.18;2.10;;;;;;;;;;5036923;28;20411;-49
2021/07/18 00:23:19;;;;;;;5.07;1.70;;;;;;;;;;5035871;28;20184;-49
2021/07/18 00:25:45;;;;;;;3.45;1.60;;;;;;;;;;5035943;28;20215;-48
2021/07/18 00:28:11;;;;;;;6.38;1.90;;;;;;;;;;5036479;28;20180;-48
2021/07/18 00:30:37;;;;;;;6.50;1.98;;;;;;;;;;5036074;28;20494;-48
2021/07/18 00:33:06;;;;;;;3.97;1.77;;;;;;;;;;5036396;28;20543;-48
2021/07/18 00:35:32;;;;;;;5.22;1.95;;;;;;;;;;5036488;28;20428;-48
2021/07/18 00:37:58;;;;;;;3.17;1.80;;;;;;;;;;5035660;28;20192;-47
2021/07/18 00:40:24;;;;;;;5.85;2.08;;;;;;;;;;5036356;28;20180;-49
2021/07/18 00:42:50;;;;;;;6.63;2.13;;;;;;;;;;5035977;28;20274;-48
2021/07/18 00:45:16;;;;;;;6.97;1.90;;;;;;;;;;5036021;28;20283;-48
2021/07/18 00:47:42;;;;;;;3.20;1.60;;;;;;;;;;5035323;28;20222;-47
2021/07/18 00:50:12;;;;;;;5.63;1.65;;;;;;;;;;5036426;28;20164;-48
2021/07/18 00:52:38;;;;;;;4.80;1.80;;;;;;;;;;5036015;28;20180;-48
2021/07/18 00:55:05;;;;;;;4.32;1.95;;;;;;;;;;5035947;28;20184;-49
2021/07/18 00:57:32;;;;;;;6.82;1.98;;;;;;;;;;5035159;28;20188;-48
2021/07/18 00:59:58;;;;;;;5.45;1.50;;;;;;;;;;5035508;28;20451;-47
2021/07/18 01:02:25;;;;;;;5.47;1.90;;;;;;;;;;5035579;28;20206;-49
2021/07/18 01:04:51;;;;;;;5.93;2.50;;;;;;;;;;5035574;28;20202;-48
2021/07/18 01:07:16;;;;;;;2.63;1.50;;;;;;;;;;5035240;28;20168;-48
2021/07/18 01:09:43;;;;;;;6.88;2.15;;;;;;;;;;5035430;28;20577;-48
2021/07/18 01:12:09;;;;;;;5.20;1.80;;;;;;;;;;5035523;28;20172;-48
2021/07/18 01:14:35;;;;;;;7.13;2.00;;;;;;;;;;5035054;28;20176;-48
2021/07/18 01:17:01;;;;;;;6.20;1.95;;;;;;;;;;5034831;28;20463;-49
2021/07/18 01:19:29;;;;;;;7.68;3.05;;;;;;;;;;5035137;28;20249;-48
2021/07/18 01:21:59;;;;;;;7.38;2.20;;;;;;;;;;5035436;28;20175;-49
2021/07/18 01:24:25;;;;;;;4.85;1.70;;;;;;;;;;5035364;28;20259;-49
2021/07/18 01:26:52;;;;;;;4.40;1.40;;;;;;;;;;5034486;28;20179;-48
2021/07/18 01:29:18;;;;;;;3.75;1.50;;;;;;;;;;5034763;28;20190;-50
2021/07/18 01:31:44;;;;;;;4.72;1.83;;;;;;;;;;5035092;28;20199;-49
2021/07/18 01:34:10;;;;;;;8.77;2.20;;;;;;;;;;5034192;28;20331;-49
2021/07/18 01:36:36;;;;;;;5.07;1.60;;;;;;;;;;5034707;28;20184;-48
2021/07/18 01:39:09;;;;;;;4.15;1.48;;;;;;;;;;5034644;28;20186;-47
2021/07/18 01:41:35;;;;;;;5.53;1.80;;;;;;;;;;5034639;28;20279;-49
2021/07/18 01:44:02;;;;;;;5.20;1.60;;;;;;;;;;5034984;28;20191;-47
2021/07/18 01:46:29;;;;;;;3.35;1.60;;;;;;;;;;5034323;28;20246;-48
2021/07/18 01:48:55;;;;;;;5.82;1.70;;;;;;;;;;5034652;28;20184;-48
2021/07/18 01:51:22;;;;;;;4.10;1.80;;;;;;;;;;5034885;28;20621;-48
2021/07/18 01:53:52;;;;;;;5.43;1.65;;;;;;;;;;5034931;28;20214;-48
2021/07/18 01:56:18;;;;;;;3.25;1.70;;;;;;;;;;5033899;28;20172;-49
2021/07/18 01:58:46;;;;;;;4.45;1.85;;;;;;;;;;5034437;28;20194;-48
2021/07/18 02:01:12;;;;;;;4.82;1.85;;;;;;;;;;5034404;28;20623;-47
2021/07/18 02:03:38;;;;;;;3.92;2.25;;;;;;;;;;5034699;28;20210;-49
2021/07/18 02:06:04;;;;;;;7.57;2.40;;;;;;;;;;5033899;28;20235;-49
2021/07/18 02:08:30;;;;;;;3.67;2.00;;;;;;;;;;5034320;28;20237;-48
2021/07/18 02:10:56;;;;;;;4.03;2.15;;;;;;;;;;5034189;28;20188;-48
2021/07/18 02:13:22;;;;;;;4.10;2.15;;;;;;;;;;5034442;28;20241;-49
2021/07/18 02:15:49;;;;;;;3.88;2.00;;;;;;;;;;5033881;28;20194;-49
2021/07/18 02:18:15;;;;;;;5.68;2.08;;;;;;;;;;5034018;28;20188;-48
2021/07/18 02:20:41;;;;;;;4.47;1.85;;;;;;;;;;5034527;28;20179;-49
2021/07/18 02:23:07;;;;;;;2.90;1.90;;;;;;;;;;5034717;28;20199;-48
2021/07/18 02:25:33;;;;;;;5.28;2.70;;;;;;;;;;5034361;28;20215;-49
2021/07/18 02:27:59;;;;;;;4.88;2.20;;;;;;;;;;5033729;28;20262;-48
2021/07/18 02:30:25;;;;;;;7.60;2.35;;;;;;;;;;5034106;28;20639;-48
2021/07/18 02:32:52;;;;;;;5.65;2.33;;;;;;;;;;5034380;28;20206;-48
2021/07/18 02:35:18;;;;;;;4.35;2.13;;;;;;;;;;5033655;28;20172;-49
2021/07/18 02:37:45;;;;;;;2.95;2.28;;;;;;;;;;5017159;28;20229;-48
2021/07/18 02:40:12;;;;;;;3.42;2.30;;;;;;;;;;5034318;28;20250;-48
2021/07/18 02:42:39;;;;;;;5.97;2.50;;;;;;;;;;5034239;28;20210;-48
2021/07/18 02:45:06;;;;;;;7.65;2.78;;;;;;;;;;5034120;28;20195;-49
2021/07/18 02:47:32;;;;;;;6.45;2.50;;;;;;;;;;5037596;28;20190;-48
2021/07/18 02:49:58;;;;;;;5.28;2.75;;;;;;;;;;5038485;28;20164;-48
2021/07/18 02:52:24;;;;;;;6.47;2.88;;;;;;;;;;5038028;28;20229;-49
2021/07/18 02:54:50;;;;;;;5.68;3.15;;;;;;;;;;5037988;28;20187;-48
2021/07/18 02:57:17;;;;;;;7.68;3.25;;;;;;;;;;5037234;28;20176;-48
2021/07/18 02:59:43;;;;;;;5.75;3.58;;;;;;;;;;5037750;28;20179;-47
2021/07/18 03:02:09;;;;;;;7.72;3.10;;;;;;;;;;5037964;28;20271;-48
2021/07/18 03:04:35;;;;;;;4.57;2.58;;;;;;;;;;5037978;28;20515;-48
2021/07/18 03:07:01;;;;;;;9.32;3.13;;;;;;;;;;5037017;28;20187;-48
2021/07/18 03:09:27;;;;;;;7.22;3.35;;;;;;;;;;5037689;28;20211;-49
2021/07/18 03:11:53;;;;;;;4.78;2.78;;;;;;;;;;5037751;28;20192;-48
2021/07/18 03:14:20;;;;;;;11.85;3.20;;;;;;;;;;5037810;28;20571;-48
2021/07/18 03:16:47;;;;;;;9.32;3.28;;;;;;;;;;5037608;28;20434;-48
2021/07/18 03:19:14;;;;;;;6.10;3.45;;;;;;;;;;5037382;28;20233;-48
2021/07/18 03:21:40;;;;;;;4.97;3.17;;;;;;;;;;5037575;28;20182;-49
2021/07/18 03:24:06;;;;;;;7.13;3.50;;;;;;;;;;5037749;28;20176;-48
2021/07/18 03:26:32;;;;;;;5.85;3.60;;;;;;;;;;5036929;28;20632;-48
2021/07/18 03:28:58;;;;;;;3.47;3.10;;;;;;;;;;5029714;28;20194;-48
2021/07/18 03:31:25;;;;;;;6.78;3.33;;;;;;;;;;5036970;28;20262;-48
2021/07/18 03:33:50;;;;;;;8.00;3.42;;;;;;;;;;5037462;28;20168;-48
2021/07/18 03:36:16;;;;;;;5.07;3.10;;;;;;;;;;5036835;28;20505;-48
2021/07/18 03:38:42;;;;;;;7.30;3.70;;;;;;;;;;5037343;28;20188;-48
2021/07/18 03:41:08;;;;;;;6.82;3.47;;;;;;;;;;5037268;28;20574;-48
2021/07/18 03:43:35;;;;;;;5.85;3.30;;;;;;;;;;5037408;28;20271;-48
2021/07/18 03:46:01;;;;;;;7.15;3.88;;;;;;;;;;5036816;28;20216;-48
2021/07/18 03:48:27;;;;;;;6.20;3.75;;;;;;;;;;5037028;28;20179;-48
2021/07/18 03:50:53;;;;;;;9.38;4.18;;;;;;;;;;5037084;28;20170;-47
2021/07/18 03:53:19;;;;;;;8.15;4.32;;;;;;;;;;5037155;28;20578;-49
2021/07/18 03:55:46;;;;;;;4.95;3.90;;;;;;;;;;5036767;28;20278;-48
2021/07/18 03:58:12;;;;;;;7.53;4.50;;;;;;;;;;5035572;28;20479;-49
2021/07/18 04:00:38;;;;;;;5.93;4.32;;;;;;;;;;5036802;28;20265;-48
2021/07/18 04:03:04;;;;;;;4.93;4.07;;;;;;;;;;5037098;28;20196;-48
2021/07/18 04:05:32;;;;;;;4.63;4.13;;;;;;;;;;5036414;28;20218;-49
2021/07/18 04:07:59;;;;;;;7.05;4.97;;;;;;;;;;5036394;28;20539;-48
2021/07/18 04:10:25;;;;;;;5.05;4.30;;;;;;;;;;5036690;28;20182;-49
2021/07/18 04:12:51;;;;;;;9.45;4.60;;;;;;;;;;5036793;28;20184;-48
2021/07/18 04:15:17;;;;;;;5.35;4.10;;;;;;;;;;5036851;28;20184;-49
2021/07/18 04:17:43;;;;;;;6.97;4.68;;;;;;;;;;5036214;28;20215;-47
2021/07/18 04:20:10;;;;;;;7.00;4.93;;;;;;;;;;5036705;28;20178;-49
2021/07/18 04:22:36;;;;;;;6.40;5.45;;;;;;;;;;5036868;28;20172;-49
2021/07/18 04:25:02;;;;;;;6.40;4.72;;;;;;;;;;5036716;28;20283;-48
2021/07/18 04:27:28;;;;;;;8.77;4.75;;;;;;;;;;5035738;28;20494;-48
2021/07/18 04:29:54;;;;;;;9.05;4.95;;;;;;;;;;5036316;28;20230;-48
2021/07/18 04:32:20;;;;;;;5.25;4.25;;;;;;;;;;5036434;28;20251;-49
2021/07/18 04:34:46;;;;;;;4.50;4.10;;;;;;;;;;5036012;28;20262;-48
2021/07/18 04:37:12;;;;;;;6.63;4.70;;;;;;;;;;5022849;28;20175;-48
2021/07/18 04:39:38;;;;;;;6.78;4.10;;;;;;;;;;5036296;28;20210;-48
2021/07/18 04:42:04;;;;;;;6.65;4.60;;;;;;;;;;5036320;28;20271;-48
2021/07/18 04:44:30;;;;;;;9.35;5.38;;;;;;;;;;5035968;28;20214;-48
2021/07/18 04:46:57;;;;;;;6.22;4.18;;;;;;;;;;5035300;28;20215;-49
2021/07/18 04:49:23;;;;;;;6.35;5.47;;;;;;;;;;5036273;28;20169;-49
2021/07/18 04:51:49;;;;;;;7.13;4.50;;;;;;;;;;5035721;28;20191;-49
2021/07/18 04:54:15;;;;;;;12.02;5.07;;;;;;;;;;5035774;28;20176;-48
2021/07/18 04:56:41;;;;;;;7.82;5.80;;;;;;;;;;5035294;28;20186;-48
2021/07/18 04:59:07;;;;;;;6.60;5.35;;;;;;;;;;5035714;28;20457;-50
2021/07/18 05:01:33;;;;;;;6.68;5.35;;;;;;;;;;5035783;28;20207;-49
2021/07/18 05:03:59;;;;;;;9.65;5.90;;;;;;;;;;5035499;28;20450;-49
2021/07/18 05:06:25;;;;;;;8.77;5.75;;;;;;;;;;5034625;28;20196;-48
2021/07/18 05:08:51;;;;;;;15.65;7.00;;;;;;;;;;5035300;28;20664;-49
2021/07/18 05:11:19;;;;;;;8.85;6.00;;;;;;;;;;5035276;28;20174;-49
2021/07/18 05:13:45;;;;;;;11.48;6.97;;;;;;;;;;5035369;28;20262;-49
2021/07/18 05:16:11;;;;;;;12.95;5.90;;;;;;;;;;5034333;28;20184;-49
2021/07/18 05:18:37;;;;;;;8.75;5.90;;;;;;;;;;5035065;28;20748;-49
2021/07/18 05:21:03;;;;;;;6.57;5.95;;;;;;;;;;5035595;28;20205;-50
2021/07/18 05:23:29;;;;;;;10.02;6.43;;;;;;;;;;5035584;28;20178;-48
2021/07/18 05:25:55;;;;;;;9.70;6.00;;;;;;;;;;5034677;28;20199;-49
2021/07/18 05:28:21;;;;;;;9.60;6.18;;;;;;;;;;5034966;28;20199;-49
2021/07/18 05:30:47;;;;;;;7.70;5.93;;;;;;;;;;5034520;28;20190;-48
2021/07/18 05:33:14;;;;;;;6.68;5.93;;;;;;;;;;5023924;28;20819;-49
2021/07/18 05:35:40;;;;;;;7.93;6.47;;;;;;;;;;5034628;28;20184;-48
2021/07/18 05:38:06;;;;;;;12.05;6.78;;;;;;;;;;5034337;28;20190;-49
2021/07/18 05:40:32;;;;;;;8.93;6.93;;;;;;;;;;5035056;28;20172;-48
2021/07/18 05:42:58;;;;;;;11.60;7.57;;;;;;;;;;5035011;28;20455;-49
2021/07/18 05:45:24;;;;;;;12.15;7.25;;;;;;;;;;5034076;28;20211;-48
2021/07/18 05:47:50;;;;;;;11.18;6.53;;;;;;;;;;5034205;28;20180;-48
2021/07/18 05:50:17;;;;;;;9.27;7.20;;;;;;;;;;5034844;28;20176;-49
2021/07/18 05:52:43;;;;;;;9.45;6.60;;;;;;;;;;5034763;28;20179;-48
2021/07/18 05:55:10;;;;;;;12.75;6.80;;;;;;;;;;5034994;28;20186;-48
2021/07/18 05:57:36;;;;;;;9.60;7.05;;;;;;;;;;5034061;28;20563;-49
2021/07/18 06:00:04;;;;;;;10.48;7.32;;;;;;;;;;5034316;28;20263;-48
2021/07/18 06:02:30;;;;;;;7.20;6.38;;;;;;;;;;5034444;28;20500;-49
2021/07/18 06:04:56;;;;;;;8.30;6.55;;;;;;;;;;5034571;28;20195;-48
2021/07/18 06:07:22;;;;;;;11.05;6.15;;;;;;;;;;5034022;28;20175;-48
2021/07/18 06:09:48;;;;;;;8.85;6.90;;;;;;;;;;5034471;28;20179;-48
2021/07/18 06:12:14;;;;;;;11.13;6.90;;;;;;;;;;5033912;28;20194;-49
2021/07/18 06:14:41;;;;;;;7.50;6.60;;;;;;;;;;5033671;28;20202;-48
2021/07/18 06:17:07;;;;;;;7.85;7.05;;;;;;;;;;5033936;28;20186;-48
2021/07/18 06:19:33;;;;;;;9.20;6.63;;;;;;;;;;5034022;28;20168;-49
2021/07/18 06:21:59;;;;;;;7.45;6.65;;;;;;;;;;5019599;28;20184;-48
2021/07/18 06:24:25;;;;;;;7.28;6.55;;;;;;;;;;5016214;28;20180;-48
2021/07/18 06:26:51;;;;;;;11.68;7.25;;;;;;;;;;5033602;28;20590;-48
2021/07/18 06:29:17;;;;;;;12.07;7.43;;;;;;;;;;5033859;28;20199;-49
2021/07/18 06:31:43;;;;;;;14.45;8.60;;;;;;;;;;5034028;28;20536;-48
2021/07/18 06:34:09;;;;;;;9.25;7.90;;;;;;;;;;5034510;28;20207;-49
2021/07/18 06:36:35;;;;;;;13.77;9.52;;;;;;;;;;5033830;28;20204;-48
2021/07/18 06:39:01;;;;;;;14.27;8.57;;;;;;;;;;5034426;28;20555;-49
2021/07/18 06:41:27;;;;;;;13.73;9.05;;;;;;;;;;5034214;28;20183;-48
2021/07/18 06:43:53;;;;;;;10.93;9.25;;;;;;;;;;5034026;28;20192;-48
2021/07/18 06:46:19;;;;;;;13.80;9.15;;;;;;;;;;5033367;28;20539;-49
2021/07/18 06:48:45;;;;;;;14.68;9.15;;;;;;;;;;5033897;28;20226;-48
2021/07/18 06:51:11;;;;;;;12.93;9.77;;;;;;;;;;5034404;28;20203;-48
2021/07/18 06:53:37;;;;;;;9.73;8.73;;;;;;;;;;5034105;28;20187;-50
2021/07/18 06:56:04;;;;;;;12.90;8.75;;;;;;;;;;5033755;28;20500;-48
2021/07/18 06:58:30;;;;;;;11.15;9.45;;;;;;;;;;5033534;28;20239;-49
2021/07/18 07:00:56;;;;;;;13.30;9.25;;;;;;;;;;5033957;28;20499;-49
2021/07/18 07:03:22;;;;;;;10.57;8.73;;;;;;;;;;5034245;28;20180;-48
2021/07/18 07:05:48;;;;;;;12.27;8.00;;;;;;;;;;5033824;28;20243;-48
2021/07/18 07:08:14;;;;;;;9.68;8.48;;;;;;;;;;5034278;28;20168;-49
2021/07/18 07:10:41;;;;;;;10.00;8.70;;;;;;;;;;5033786;28;20358;-48
2021/07/18 07:13:07;;;;;;;12.65;8.68;;;;;;;;;;5033580;28;20201;-49
2021/07/18 07:15:33;;;;;;;11.85;8.77;;;;;;;;;;5033590;28;20211;-48
2021/07/18 07:17:59;;;;;;;10.80;8.50;;;;;;;;;;5033394;28;20338;-48
2021/07/18 07:20:28;;;;;;;12.27;8.65;;;;;;;;;;5034156;28;20218;-48
2021/07/18 07:22:54;;;;;;;15.43;9.30;;;;;;;;;;5030616;28;20183;-49
2021/07/18 07:25:20;;;;;;;12.20;8.85;;;;;;;;;;5023362;28;20227;-50
2021/07/18 07:27:46;;;;;;;14.55;9.02;;;;;;;;;;5031324;28;20172;-48
2021/07/18 07:30:14;;;;;;;16.02;8.40;;;;;;;;;;5031870;28;20577;-49
2021/07/18 07:32:40;;;;;;;14.50;9.20;;;;;;;;;;5032139;28;20246;-49
2021/07/18 07:35:07;;;;;;;13.05;8.63;;;;;;;;;;5035979;28;20478;-49
2021/07/18 07:37:34;;;;;;;12.32;8.57;;;;;;;;;;5035329;28;20172;-48
2021/07/18 07:40:00;;;;;;;12.70;9.07;;;;;;;;;;5035961;28;20182;-48
2021/07/18 07:42:26;;;;;;;13.55;8.73;;;;;;;;;;5036531;28;20175;-48
2021/07/18 07:44:52;;;;;;;11.43;8.20;;;;;;;;;;5035425;28;20286;-48
2021/07/18 07:47:19;;;;;;;11.05;8.85;;;;;;;;;;5036753;28;20261;-49
2021/07/18 07:49:45;;;;;;;11.18;8.18;;;;;;;;;;5037342;28;20424;-48
2021/07/18 07:52:12;;;;;;;9.43;8.05;;;;;;;;;;5035719;28;20597;-48
2021/07/18 07:54:38;;;;;;;9.40;7.70;;;;;;;;;;5017104;28;20567;-49
2021/07/18 07:57:05;;;;;;;8.50;7.80;;;;;;;;;;5028624;28;20214;-49
2021/07/18 07:59:31;;;;;;;9.90;8.30;;;;;;;;;;5036655;28;20192;-48
2021/07/18 08:01:58;;;;;;;10.48;8.07;;;;;;;;;;5036932;28;20172;-48
2021/07/18 08:04:24;;;;;;;8.90;7.55;;;;;;;;;;5020698;28;20263;-48
2021/07/18 08:06:50;;;;;;;7.78;6.97;;;;;;;;;;5036211;28;20403;-48
2021/07/18 08:09:16;;;;;;;10.35;7.63;;;;;;;;;;5036274;28;20270;-48
2021/07/18 08:11:42;;;;;;;9.32;8.30;;;;;;;;;;5036597;28;20160;-48
2021/07/18 08:14:08;;;;;;;9.60;7.82;;;;;;;;;;5033903;28;20206;-48
2021/07/18 08:16:34;;;;;;;9.18;7.60;;;;;;;;;;5034806;28;20187;-48
2021/07/18 08:19:00;;;;;;;8.95;7.57;;;;;;;;;;5026478;28;20192;-48
2021/07/18 08:21:26;;;;;;;8.93;7.90;;;;;;;;;;5029965;28;20184;-48
2021/07/18 08:23:52;;;;;;;8.23;7.45;;;;;;;;;;5020091;28;20184;-48
2021/07/18 08:26:20;;;;;;;10.88;7.78;;;;;;;;;;5024853;28;20287;-48
2021/07/18 08:28:46;;;;;;;9.25;7.75;;;;;;;;;;5035673;28;20179;-48
2021/07/18 08:31:12;;;;;;;11.15;7.80;;;;;;;;;;5036354;28;20184;-49
2021/07/18 08:33:38;;;;;;;9.80;8.30;;;;;;;;;;5036554;28;20262;-48
2021/07/18 08:36:04;;;;;;;8.63;7.75;;;;;;;;;;5029416;28;20188;-48
2021/07/18 08:38:31;;;;;;;10.82;7.82;;;;;;;;;;5035301;28;20455;-48
2021/07/18 08:40:57;;;;;;;9.45;8.43;;;;;;;;;;5035737;28;20487;-48
2021/07/18 08:43:24;;;;;;;9.07;8.18;;;;;;;;;;5034295;28;20176;-48
2021/07/18 08:45:51;;;;;;;9.48;8.45;;;;;;;;;;5034728;28;20220;-48
2021/07/18 08:48:17;;;;;;;8.27;7.47;;;;;;;;;;5035356;28;20191;-49
2021/07/18 08:50:43;;;;;;;9.00;7.85;;;;;;;;;;5035991;28;20201;-49
2021/07/18 08:53:09;;;;;;;9.90;7.53;;;;;;;;;;5035169;28;20646;-50
2021/07/18 08:55:38;;;;;;;10.02;7.43;;;;;;;;;;5034525;28;20249;-48
2021/07/18 08:58:04;;;;;;;8.82;7.80;;;;;;;;;;5035500;28;20192;-49
2021/07/18 09:00:30;;;;;;;8.40;7.70;;;;;;;;;;5035409;28;20214;-48
2021/07/18 09:02:56;;;;;;;9.77;7.47;;;;;;;;;;5035780;28;20187;-48
2021/07/18 09:05:23;;;;;;;10.52;8.70;;;;;;;;;;5035824;28;20242;-49
2021/07/18 09:07:50;;;;;;;9.75;8.30;;;;;;;;;;5035149;28;20530;-49
2021/07/18 09:10:26;;;;;;;9.05;8.07;;;;;;;;;;5035889;28;20156;-49
2021/07/18 09:13:06;;;;;;;10.43;8.30;;;;;;;;;;5035533;28;20179;-49
2021/07/18 09:15:44;;;;;;;10.77;8.35;;;;;;;;;;5035213;28;20184;-48
2021/07/18 09:18:15;;;;;;;8.52;7.60;;;;;;;;;;5035294;28;20183;-48
2021/07/18 09:20:42;;;;;;;8.88;7.22;;;;;;;;;;5035546;28;20861;-48
2021/07/18 09:23:13;;;;;;;8.27;7.15;;;;;;;;;;5035666;28;20180;-49
2021/07/18 09:25:40;;;;;;;7.78;7.07;;;;;;;;;;5034795;28;20200;-49
2021/07/18 09:28:32;;;;;;;9.98;7.78;;;;;;;;;;5034849;28;20175;-49
2021/07/18 09:30:58;;;;;;;9.00;6.90;;;;;;;;;;5034719;28;20206;-49
2021/07/18 09:33:25;;;;;;;8.13;7.32;;;;;;;;;;5021366;28;20556;-49
2021/07/18 09:35:51;;;;;;;8.10;7.22;;;;;;;;;;5019852;28;20183;-49
2021/07/18 09:38:21;;;;;;;7.60;6.80;;;;;;;;;;5034907;28;20748;-49
2021/07/18 09:40:57;;;;;;;7.65;6.82;;;;;;;;;;5034867;28;20176;-49
2021/07/18 09:43:23;;;;;;;7.90;7.13;;;;;;;;;;5034872;28;20182;-49
2021/07/18 09:46:00;;;;;;;8.52;6.82;;;;;;;;;;5033796;28;20234;-48
2021/07/18 09:48:33;;;;;;;9.95;6.90;;;;;;;;;;5035130;28;20167;-48
2021/07/18 09:51:06;;;;;;;9.07;7.03;;;;;;;;;;5042673;28;20184;-49
2021/07/18 09:53:32;;;;;;;8.07;6.88;;;;;;;;;;5028732;28;20211;-49
2021/07/18 09:56:09;;;;;;;6.88;6.28;;;;;;;;;;5017486;28;20187;-48
2021/07/18 09:58:38;;;;;;;8.10;6.50;;;;;;;;;;5034998;28;20513;-48
2021/07/18 10:01:06;;;;;;;7.95;6.88;;;;;;;;;;5034723;28;20233;-49
2021/07/18 10:03:32;;;;;;;7.38;6.65;;;;;;;;;;5030863;28;20184;-49
2021/07/18 10:06:04;;;;;;;7.85;7.10;;;;;;;;;;5031506;28;20203;-49
2021/07/18 10:08:31;;;;;;;10.02;6.40;;;;;;;;;;5034553;28;20210;-49
2021/07/18 10:10:57;;;;;;;9.15;6.32;;;;;;;;;;5034744;28;20168;-48
2021/07/18 10:13:23;;;;;;;7.63;6.88;;;;;;;;;;5034209;28;20179;-51
2021/07/18 10:15:49;;;;;;;7.90;6.82;;;;;;;;;;5029309;28;20197;-49
2021/07/18 10:18:16;;;;;;;8.40;6.40;;;;;;;;;;5033214;28;20180;-50
2021/07/18 10:20:42;;;;;;;7.57;6.68;;;;;;;;;;5028376;28;20207;-51
2021/07/18 10:23:08;;;;;;;8.35;7.55;;;;;;;;;;5019651;28;20254;-49
2021/07/18 10:25:35;;;;;;;8.30;7.50;;;;;;;;;;5032011;28;20207;-50
2021/07/18 10:28:01;;;;;;;8.35;7.55;;;;;;;;;;5033953;28;20214;-50
2021/07/18 10:30:29;;;;;;;7.72;6.88;;;;;;;;;;5031207;28;20180;-50
2021/07/18 10:32:56;;;;;;;9.98;8.10;;;;;;;;;;5028086;28;20460;-50
2021/07/18 10:35:22;;;;;;;11.73;7.65;;;;;;;;;;5028421;28;20198;-50
2021/07/18 10:37:49;;;;;;;9.50;7.72;;;;;;;;;;5032501;28;20179;-49
2021/07/18 10:40:18;;;;;;;12.57;7.82;;;;;;;;;;5034354;28;20204;-49
2021/07/18 10:42:44;;;;;;;8.50;7.40;;;;;;;;;;5033737;28;20189;-50
2021/07/18 10:45:23;;;;;;;9.93;8.55;;;;;;;;;;5032398;28;20387;-49
2021/07/18 10:47:57;;;;;;;9.82;8.88;;;;;;;;;;5024511;28;20176;-49
2021/07/18 10:50:42;;;;;;;11.13;7.43;;;;;;;;;;5014695;28;20242;-49
2021/07/18 10:53:22;;;;;;;8.50;7.70;;;;;;;;;;5013607;28;20188;-49
2021/07/18 10:55:49;;;;;;;8.57;7.75;;;;;;;;;;5014004;28;20181;-49
2021/07/18 10:58:33;;;;;;;9.48;8.43;;;;;;;;;;5027771;28;20190;-49
2021/07/18 11:01:00;;;;;;;15.85;9.75;;;;;;;;;;5033828;28;20836;-49
2021/07/18 11:03:33;;;;;;;9.80;8.73;;;;;;;;;;5032600;28;20226;-50
2021/07/18 11:06:19;;;;;;;13.10;9.75;;;;;;;;;;5033397;28;20195;-49
2021/07/18 11:09:03;;;;;;;12.73;9.43;;;;;;;;;;5037565;28;20222;-49
2021/07/18 11:11:39;;;;;;;14.88;9.80;;;;;;;;;;5037847;28;20171;-50
2021/07/18 11:14:23;;;;;;;17.15;9.80;;;;;;;;;;5037222;28;20570;-49
2021/07/18 11:16:54;;;;;;;10.73;8.88;;;;;;;;;;5036660;28;20180;-50
2021/07/18 11:19:41;;;;;;;10.27;9.02;;;;;;;;;;5037508;28;20232;-49
2021/07/18 11:22:11;;;;;;;11.30;8.95;;;;;;;;;;5029560;28;20191;-49
2021/07/18 11:24:53;;;;;;;13.48;8.95;;;;;;;;;;5029573;28;20256;-50
2021/07/18 11:27:33;;;;;;;9.65;8.73;;;;;;;;;;5031939;28;20188;-49
2021/07/18 11:30:01;;;;;;;9.85;8.68;;;;;;;;;;5029525;28;20171;-49
2021/07/18 11:32:28;;;;;;;9.13;8.15;;;;;;;;;;5032298;28;20183;-49
2021/07/18 11:34:55;;;;;;;11.30;8.63;;;;;;;;;;5032588;28;20184;-49
2021/07/18 11:37:22;;;;;;;8.63;7.80;;;;;;;;;;5036806;28;20191;-50
2021/07/18 11:39:48;;;;;;;9.48;8.52;;;;;;;;;;5037214;28;20174;-49
2021/07/18 11:42:15;;;;;;;12.00;7.72;;;;;;;;;;5037005;28;20246;-48
2021/07/18 11:44:47;;;;;;;9.80;8.07;;;;;;;;;;5037085;28;20191;-49
2021/07/18 11:47:18;;;;;;;9.00;7.85;;;;;;;;;;5036590;28;20187;-49
2021/07/18 11:49:46;;;;;;;8.18;7.38;;;;;;;;;;5037387;28;20179;-49
2021/07/18 11:52:13;;;;;;;8.82;6.40;;;;;;;;;;5036666;28;20267;-51
2021/07/18 11:54:39;;;;;;;7.88;6.68;;;;;;;;;;5036827;28;20656;-49
2021/07/18 11:57:09;;;;;;;9.50;6.60;;;;;;;;;;5036544;28;20271;-49
2021/07/18 11:59:36;;;;;;;8.48;6.45;;;;;;;;;;5036957;28;20176;-51
2021/07/18 12:02:04;;;;;;;6.68;5.88;;;;;;;;;;5035326;28;20176;-50
2021/07/18 12:04:30;;;;;;;7.80;6.00;;;;;;;;;;5030105;28;20183;-49
2021/07/18 12:06:58;;;;;;;6.20;5.60;;;;;;;;;;5036101;28;20440;-49
2021/07/18 12:09:26;;;;;;;7.18;5.70;;;;;;;;;;5035483;28;20172;-49
2021/07/18 12:11:52;;;;;;;6.53;5.70;;;;;;;;;;5035087;28;20189;-49
2021/07/18 12:14:18;;;;;;;8.57;6.18;;;;;;;;;;5021085;28;20571;-49
2021/07/18 12:16:45;;;;;;;8.65;5.40;;;;;;;;;;5034566;28;20183;-49
2021/07/18 12:19:12;;;;;;;9.38;5.47;;;;;;;;;;5034049;28;20188;-49
2021/07/18 12:21:40;;;;;;;11.40;5.15;;;;;;;;;;5036738;28;20183;-50
2021/07/18 12:24:12;;;;;;;13.55;6.20;;;;;;;;;;5030630;28;20180;-50
2021/07/18 12:26:38;;;;;;;9.90;4.88;;;;;;;;;;5035647;28;20232;-49
2021/07/18 12:29:05;;;;;;;10.40;4.88;;;;;;;;;;5036624;28;20176;-49
2021/07/18 12:31:31;;;;;;;6.50;5.18;;;;;;;;;;5036045;28;20187;-49
2021/07/18 12:33:57;;;;;;;7.90;5.03;;;;;;;;;;5040394;28;20250;-49
2021/07/18 12:36:24;;;;;;;6.15;4.93;;;;;;;;;;5055258;28;20191;-50
2021/07/18 12:38:49;;;;;;;5.80;4.95;;;;;;;;;;5056329;28;20183;-49
2021/07/18 12:41:16;;;;;;;6.43;4.32;;;;;;;;;;5056426;28;20172;-49
2021/07/18 12:43:42;;;;;;;6.53;4.68;;;;;;;;;;5041386;28;20211;-50
2021/07/18 12:46:10;;;;;;;6.78;4.72;;;;;;;;;;5034899;28;20462;-49
2021/07/18 12:48:36;;;;;;;4.68;4.15;;;;;;;;;;5035469;28;20179;-50
2021/07/18 12:51:15;;;;;;;6.35;4.43;;;;;;;;;;5036283;28;20168;-50
2021/07/18 12:53:41;;;;;;;10.30;4.50;;;;;;;;;;5036181;28;20199;-50
2021/07/18 12:56:11;;;;;;;4.85;4.00;;;;;;;;;;5027878;28;20180;-49
2021/07/18 12:58:43;;;;;;;5.53;4.28;;;;;;;;;;5035377;28;20241;-50
2021/07/18 13:01:12;;;;;;;5.57;3.83;;;;;;;;;;5035608;28;20191;-49
2021/07/18 13:03:38;;;;;;;5.57;3.92;;;;;;;;;;5036099;28;20613;-48
2021/07/18 13:06:10;;;;;;;7.55;4.22;;;;;;;;;;5034590;28;20207;-49
2021/07/18 13:08:41;;;;;;;8.30;3.45;;;;;;;;;;5034886;28;20237;-49
2021/07/18 13:11:07;;;;;;;8.63;3.85;;;;;;;;;;5035956;28;20172;-49
2021/07/18 13:13:34;;;;;;;7.22;3.85;;;;;;;;;;5034597;28;20180;-49
2021/07/18 13:16:02;;;;;;;4.60;3.15;;;;;;;;;;5024730;28;20188;-49
2021/07/18 13:18:34;;;;;;;5.88;3.13;;;;;;;;;;5033641;28;20575;-50
2021/07/18 13:21:14;;;;;;;7.97;3.05;;;;;;;;;;5034235;28;20278;-49
2021/07/18 13:23:43;;;;;;;8.18;3.47;;;;;;;;;;5035414;28;20251;-49
2021/07/18 13:26:10;;;;;;;6.10;3.60;;;;;;;;;;5034315;28;20214;-49
2021/07/18 13:28:36;;;;;;;5.50;3.70;;;;;;;;;;5035300;28;20559;-49
2021/07/18 13:31:02;;;;;;;3.65;3.17;;;;;;;;;;5035008;28;20183;-49
2021/07/18 13:33:31;;;;;;;5.85;3.05;;;;;;;;;;5033044;28;20232;-49
2021/07/18 13:35:58;;;;;;;3.88;3.30;;;;;;;;;;5034341;28;20200;-49
2021/07/18 13:38:32;;;;;;;7.80;3.60;;;;;;;;;;5034979;28;20171;-49
2021/07/18 13:41:08;;;;;;;5.07;3.30;;;;;;;;;;5035148;28;20261;-49
2021/07/18 13:43:34;;;;;;;4.13;3.28;;;;;;;;;;5034329;28;20195;-50
2021/07/18 13:46:01;;;;;;;3.75;3.22;;;;;;;;;;5024915;28;20346;-49
2021/07/18 13:48:28;;;;;;;9.43;3.42;;;;;;;;;;5033073;28;20183;-49
2021/07/18 13:50:55;;;;;;;6.10;3.22;;;;;;;;;;5034834;28;20176;-49
2021/07/18 13:53:21;;;;;;;5.57;3.80;;;;;;;;;;5033600;28;20203;-49
2021/07/18 13:55:47;;;;;;;5.80;3.08;;;;;;;;;;5030953;28;20180;-48
2021/07/18 13:58:14;;;;;;;6.85;3.28;;;;;;;;;;5034821;28;20263;-49
2021/07/18 14:00:40;;;;;;;6.95;3.80;;;;;;;;;;5029630;28;20180;-49
2021/07/18 14:03:06;;;;;;;8.25;3.90;;;;;;;;;;5026304;28;20179;-49
2021/07/18 14:05:32;;;;;;;6.80;3.47;;;;;;;;;;5018669;28;20200;-49
2021/07/18 14:07:58;;;;;;;5.57;3.03;;;;;;;;;;5034352;28;20250;-49
2021/07/18 14:10:24;;;;;;;4.25;2.80;;;;;;;;;;5034710;28;20222;-49
2021/07/18 14:12:50;;;;;;;4.38;2.97;;;;;;;;;;5034554;28;20176;-50
2021/07/18 14:15:17;;;;;;;4.72;3.05;;;;;;;;;;5033015;28;20772;-49
2021/07/18 14:17:43;;;;;;;3.35;2.55;;;;;;;;;;5031195;28;20204;-50
2021/07/18 14:20:11;;;;;;;4.82;2.72;;;;;;;;;;5028399;28;20183;-49
2021/07/18 14:22:38;;;;;;;4.03;2.88;;;;;;;;;;5019117;28;20302;-49
2021/07/18 14:25:07;;;;;;;3.55;2.53;;;;;;;;;;5025652;28;20191;-49
2021/07/18 14:27:33;;;;;;;4.03;3.00;;;;;;;;;;5018560;28;20190;-49
2021/07/18 14:30:00;;;;;;;4.78;2.88;;;;;;;;;;5033564;28;20176;-49
2021/07/18 14:32:26;;;;;;;3.78;2.88;;;;;;;;;;5033948;28;20180;-49
2021/07/18 14:34:53;;;;;;;4.50;2.60;;;;;;;;;;5034239;28;20561;-49
2021/07/18 14:37:19;;;;;;;2.63;2.42;;;;;;;;;;5017567;28;20184;-50
2021/07/18 14:39:45;;;;;;;3.35;2.50;;;;;;;;;;5014618;28;20168;-49
2021/07/18 14:42:11;;;;;;;2.97;2.55;;;;;;;;;;5023314;28;20618;-49